sensor_id;sensor_type;location;lat;lon;timestamp;temperature;humidity
7028;DHT22;3555;53.248;10.336;2023-04-06T00:00:34;5.50;6.00
7028;DHT22;3555;53.248;10.336;2023-04-06T00:03:01;5.50;99.90
7028;DHT22;3555;53.248;10.336;2023-04-06T00:05:28;5.40;99.90
7028;DHT22;3555;53.248;10.336;2023-04-06T00:07:57;5.50;99.90
7028;DHT22;3555;53.248;10.336;2023-04-06T00:10:24;5.40;1.00
7028;DHT22;3555;53.248;10.336;2023-04-06T00:12:52;5.50;77.60
7028;DHT22;3555;53.248;10.336;2023-04-06T00:15:19;5.60;18.30
7028;DHT22;3555;53.248;10.336;2023-04-06T00:17:47;5.60;1.00
7028;DHT22;3555;53.248;10.336;2023-04-06T00:20:15;5.60;1.00
7028;DHT22;3555;53.248;10.336;2023-04-06T00:22:42;5.70;1.00
7028;DHT22;3555;53.248;10.336;2023-04-06T00:25:09;5.70;1.00
7028;DHT22;3555;53.248;10.336;2023-04-06T00:27:37;5.80;1.00
7028;DHT22;3555;53.248;10.336;2023-04-06T00:30:05;5.70;1.00
7028;DHT22;3555;53.248;10.336;2023-04-06T00:32:32;5.40;1.00
7028;DHT22;3555;53.248;10.336;2023-04-06T00:35:01;5.00;99.90
7028;DHT22;3555;53.248;10.336;2023-04-06T00:37:28;4.90;99.90
7028;DHT22;3555;53.248;10.336;2023-04-06T00:39:55;4.90;99.90
7028;DHT22;3555;53.248;10.336;2023-04-06T00:42:23;4.80;79.60
7028;DHT22;3555;53.248;10.336;2023-04-06T00:44:52;4.50;99.90
7028;DHT22;3555;53.248;10.336;2023-04-06T00:47:20;4.40;99.90
7028;DHT22;3555;53.248;10.336;2023-04-06T00:49:47;4.40;99.90
7028;DHT22;3555;53.248;10.336;2023-04-06T00:52:15;4.50;99.90
7028;DHT22;3555;53.248;10.336;2023-04-06T00:54:42;4.60;99.90
7028;DHT22;3555;53.248;10.336;2023-04-06T00:57:10;4.70;99.90
7028;DHT22;3555;53.248;10.336;2023-04-06T00:59:37;4.60;99.90
7028;DHT22;3555;53.248;10.336;2023-04-06T01:02:05;4.50;99.90
7028;DHT22;3555;53.248;10.336;2023-04-06T01:04:32;4.50;99.90
7028;DHT22;3555;53.248;10.336;2023-04-06T01:06:59;4.50;99.90
7028;DHT22;3555;53.248;10.336;2023-04-06T01:09:29;4.60;99.90
7028;DHT22;3555;53.248;10.336;2023-04-06T01:11:56;4.70;99.90
7028;DHT22;3555;53.248;10.336;2023-04-06T01:14:23;4.70;99.90
7028;DHT22;3555;53.248;10.336;2023-04-06T01:16:51;4.70;99.90
7028;DHT22;3555;53.248;10.336;2023-04-06T01:19:18;4.70;68.30
7028;DHT22;3555;53.248;10.336;2023-04-06T01:21:46;4.50;1.00
7028;DHT22;3555;53.248;10.336;2023-04-06T01:24:16;4.10;40.50
7028;DHT22;3555;53.248;10.336;2023-04-06T01:26:43;3.90;99.90
7028;DHT22;3555;53.248;10.336;2023-04-06T01:29:10;3.80;99.90
7028;DHT22;3555;53.248;10.336;2023-04-06T01:31:37;3.70;1.00
7028;DHT22;3555;53.248;10.336;2023-04-06T01:34:04;3.70;1.00
7028;DHT22;3555;53.248;10.336;2023-04-06T01:36:31;3.70;1.00
7028;DHT22;3555;53.248;10.336;2023-04-06T01:38:58;3.60;1.00
7028;DHT22;3555;53.248;10.336;2023-04-06T01:41:26;3.60;1.00
7028;DHT22;3555;53.248;10.336;2023-04-06T01:43:54;3.50;1.00
7028;DHT22;3555;53.248;10.336;2023-04-06T01:46:21;3.50;99.90
7028;DHT22;3555;53.248;10.336;2023-04-06T01:48:48;3.40;1.00
7028;DHT22;3555;53.248;10.336;2023-04-06T01:51:15;3.50;1.00
7028;DHT22;3555;53.248;10.336;2023-04-06T01:53:42;3.50;1.00
7028;DHT22;3555;53.248;10.336;2023-04-06T01:56:10;3.50;99.90
7028;DHT22;3555;53.248;10.336;2023-04-06T01:58:38;3.40;1.00
7028;DHT22;3555;53.248;10.336;2023-04-06T02:01:05;3.30;1.00
7028;DHT22;3555;53.248;10.336;2023-04-06T02:03:32;3.30;1.00
7028;DHT22;3555;53.248;10.336;2023-04-06T02:05:59;3.20;1.00
7028;DHT22;3555;53.248;10.336;2023-04-06T02:08:26;3.20;1.00
7028;DHT22;3555;53.248;10.336;2023-04-06T02:10:53;3.10;1.00
7028;DHT22;3555;53.248;10.336;2023-04-06T02:13:20;3.00;1.00
7028;DHT22;3555;53.248;10.336;2023-04-06T02:15:48;3.10;1.00
7028;DHT22;3555;53.248;10.336;2023-04-06T02:18:15;2.90;1.00
7028;DHT22;3555;53.248;10.336;2023-04-06T02:20:44;2.60;99.90
7028;DHT22;3555;53.248;10.336;2023-04-06T02:23:11;2.60;99.90
7028;DHT22;3555;53.248;10.336;2023-04-06T02:25:38;2.60;99.90
7028;DHT22;3555;53.248;10.336;2023-04-06T02:28:05;2.70;99.90
7028;DHT22;3555;53.248;10.336;2023-04-06T02:30:32;2.70;99.90
7028;DHT22;3555;53.248;10.336;2023-04-06T02:33:01;2.90;99.10
7028;DHT22;3555;53.248;10.336;2023-04-06T02:35:28;2.90;1.00
7028;DHT22;3555;53.248;10.336;2023-04-06T02:37:55;2.90;1.00
7028;DHT22;3555;53.248;10.336;2023-04-06T02:40:22;2.80;1.00
7028;DHT22;3555;53.248;10.336;2023-04-06T02:42:49;2.70;1.00
7028;DHT22;3555;53.248;10.336;2023-04-06T02:45:16;2.50;99.90
7028;DHT22;3555;53.248;10.336;2023-04-06T02:47:43;2.60;95.10
7028;DHT22;3555;53.248;10.336;2023-04-06T02:50:12;2.70;99.90
7028;DHT22;3555;53.248;10.336;2023-04-06T02:52:39;2.70;1.00
7028;DHT22;3555;53.248;10.336;2023-04-06T02:55:06;2.50;1.00
7028;DHT22;3555;53.248;10.336;2023-04-06T02:57:34;2.50;99.90
7028;DHT22;3555;53.248;10.336;2023-04-06T03:00:01;2.50;99.90
7028;DHT22;3555;53.248;10.336;2023-04-06T03:02:28;2.60;99.90
7028;DHT22;3555;53.248;10.336;2023-04-06T03:04:55;2.60;99.90
7028;DHT22;3555;53.248;10.336;2023-04-06T03:07:23;2.70;99.90
7028;DHT22;3555;53.248;10.336;2023-04-06T03:09:50;2.70;99.90
7028;DHT22;3555;53.248;10.336;2023-04-06T03:12:17;2.70;99.90
7028;DHT22;3555;53.248;10.336;2023-04-06T03:14:44;2.70;99.90
7028;DHT22;3555;53.248;10.336;2023-04-06T03:17:11;2.80;99.90
7028;DHT22;3555;53.248;10.336;2023-04-06T03:19:38;2.80;55.70
7028;DHT22;3555;53.248;10.336;2023-04-06T03:22:05;2.80;90.20
7028;DHT22;3555;53.248;10.336;2023-04-06T03:24:34;2.70;66.10
7028;DHT22;3555;53.248;10.336;2023-04-06T03:27:01;2.70;1.00
7028;DHT22;3555;53.248;10.336;2023-04-06T03:29:28;2.50;1.00
7028;DHT22;3555;53.248;10.336;2023-04-06T03:31:55;2.60;99.90
7028;DHT22;3555;53.248;10.336;2023-04-06T03:34:22;2.60;99.90
7028;DHT22;3555;53.248;10.336;2023-04-06T03:36:49;2.60;99.90
7028;DHT22;3555;53.248;10.336;2023-04-06T03:39:16;2.50;99.90
7028;DHT22;3555;53.248;10.336;2023-04-06T03:41:44;2.50;99.90
7028;DHT22;3555;53.248;10.336;2023-04-06T03:44:11;2.50;92.40
7028;DHT22;3555;53.248;10.336;2023-04-06T03:46:38;2.60;1.00
7028;DHT22;3555;53.248;10.336;2023-04-06T03:49:05;2.30;99.90
7028;DHT22;3555;53.248;10.336;2023-04-06T03:51:32;2.30;99.90
7028;DHT22;3555;53.248;10.336;2023-04-06T03:53:59;2.10;99.90
7028;DHT22;3555;53.248;10.336;2023-04-06T03:56:26;2.20;1.00
7028;DHT22;3555;53.248;10.336;2023-04-06T03:58:55;2.30;99.90
7028;DHT22;3555;53.248;10.336;2023-04-06T04:01:22;2.30;99.90
7028;DHT22;3555;53.248;10.336;2023-04-06T04:03:49;2.30;99.90
7028;DHT22;3555;53.248;10.336;2023-04-06T04:06:16;2.30;99.90
7028;DHT22;3555;53.248;10.336;2023-04-06T04:08:43;2.30;30.20
7028;DHT22;3555;53.248;10.336;2023-04-06T04:11:10;2.10;99.90
7028;DHT22;3555;53.248;10.336;2023-04-06T04:13:37;1.90;99.90
7028;DHT22;3555;53.248;10.336;2023-04-06T04:16:06;1.80;99.90
7028;DHT22;3555;53.248;10.336;2023-04-06T04:18:33;1.80;1.00
7028;DHT22;3555;53.248;10.336;2023-04-06T04:21:00;1.70;1.00
7028;DHT22;3555;53.248;10.336;2023-04-06T04:23:27;1.40;1.00
7028;DHT22;3555;53.248;10.336;2023-04-06T04:25:54;1.50;99.90
7028;DHT22;3555;53.248;10.336;2023-04-06T04:28:21;1.70;99.90
7028;DHT22;3555;53.248;10.336;2023-04-06T04:30:48;1.80;1.00
7028;DHT22;3555;53.248;10.336;2023-04-06T04:33:16;1.80;1.00
7028;DHT22;3555;53.248;10.336;2023-04-06T04:35:43;1.90;1.00
7028;DHT22;3555;53.248;10.336;2023-04-06T04:38:10;2.00;1.00
7028;DHT22;3555;53.248;10.336;2023-04-06T04:40:37;2.10;1.00
7028;DHT22;3555;53.248;10.336;2023-04-06T04:43:04;2.10;1.00
7028;DHT22;3555;53.248;10.336;2023-04-06T04:45:31;2.30;1.00
7028;DHT22;3555;53.248;10.336;2023-04-06T04:47:58;2.30;99.90
7028;DHT22;3555;53.248;10.336;2023-04-06T04:50:26;2.50;99.90
7028;DHT22;3555;53.248;10.336;2023-04-06T04:52:53;2.40;1.00
7028;DHT22;3555;53.248;10.336;2023-04-06T04:55:20;2.40;1.00
7028;DHT22;3555;53.248;10.336;2023-04-06T04:57:47;2.40;83.60
7028;DHT22;3555;53.248;10.336;2023-04-06T05:00:14;2.40;1.00
7028;DHT22;3555;53.248;10.336;2023-04-06T05:02:41;2.30;1.00
7028;DHT22;3555;53.248;10.336;2023-04-06T05:05:08;2.20;1.00
7028;DHT22;3555;53.248;10.336;2023-04-06T05:07:37;2.30;15.60
7028;DHT22;3555;53.248;10.336;2023-04-06T05:10:04;2.10;99.90
7028;DHT22;3555;53.248;10.336;2023-04-06T05:12:32;2.10;99.90
7028;DHT22;3555;53.248;10.336;2023-04-06T05:14:59;2.20;99.90
7028;DHT22;3555;53.248;10.336;2023-04-06T05:17:26;2.10;99.90
7028;DHT22;3555;53.248;10.336;2023-04-06T05:19:53;2.10;99.90
7028;DHT22;3555;53.248;10.336;2023-04-06T05:22:20;2.00;99.90
7028;DHT22;3555;53.248;10.336;2023-04-06T05:24:48;1.80;99.90
7028;DHT22;3555;53.248;10.336;2023-04-06T05:27:15;1.40;1.00
7028;DHT22;3555;53.248;10.336;2023-04-06T05:29:42;1.20;99.90
7028;DHT22;3555;53.248;10.336;2023-04-06T05:32:09;0.80;99.90
7028;DHT22;3555;53.248;10.336;2023-04-06T05:34:37;0.90;1.00
7028;DHT22;3555;53.248;10.336;2023-04-06T05:37:04;0.80;99.90
7028;DHT22;3555;53.248;10.336;2023-04-06T05:39:31;0.70;99.90
7028;DHT22;3555;53.248;10.336;2023-04-06T05:42:03;0.70;1.00
7028;DHT22;3555;53.248;10.336;2023-04-06T05:44:30;0.80;30.90
7028;DHT22;3555;53.248;10.336;2023-04-06T05:46:57;1.10;99.90
7028;DHT22;3555;53.248;10.336;2023-04-06T05:49:24;1.20;1.00
7028;DHT22;3555;53.248;10.336;2023-04-06T05:51:53;1.40;1.00
7028;DHT22;3555;53.248;10.336;2023-04-06T05:54:20;1.60;1.00
7028;DHT22;3555;53.248;10.336;2023-04-06T05:56:47;1.90;99.90
7028;DHT22;3555;53.248;10.336;2023-04-06T05:59:15;2.30;1.00
7028;DHT22;3555;53.248;10.336;2023-04-06T06:01:42;2.70;99.90
7028;DHT22;3555;53.248;10.336;2023-04-06T06:04:09;3.00;1.00
7028;DHT22;3555;53.248;10.336;2023-04-06T06:06:36;3.30;99.90
7028;DHT22;3555;53.248;10.336;2023-04-06T06:09:03;3.60;99.90
7028;DHT22;3555;53.248;10.336;2023-04-06T06:11:30;4.10;1.00
7028;DHT22;3555;53.248;10.336;2023-04-06T06:13:58;4.40;98.80
7028;DHT22;3555;53.248;10.336;2023-04-06T06:16:27;4.50;1.00
7028;DHT22;3555;53.248;10.336;2023-04-06T06:18:53;4.70;99.90
7028;DHT22;3555;53.248;10.336;2023-04-06T06:21:20;4.80;1.00
7028;DHT22;3555;53.248;10.336;2023-04-06T06:23:47;4.70;1.00
7028;DHT22;3555;53.248;10.336;2023-04-06T06:26:15;4.70;1.00
7028;DHT22;3555;53.248;10.336;2023-04-06T06:28:42;4.70;1.00
7028;DHT22;3555;53.248;10.336;2023-04-06T06:31:10;4.90;1.00
7028;DHT22;3555;53.248;10.336;2023-04-06T06:33:38;5.20;1.00
7028;DHT22;3555;53.248;10.336;2023-04-06T06:36:05;5.20;1.00
7028;DHT22;3555;53.248;10.336;2023-04-06T06:38:32;5.30;1.00
7028;DHT22;3555;53.248;10.336;2023-04-06T06:41:00;5.40;1.00
7028;DHT22;3555;53.248;10.336;2023-04-06T06:43:27;5.50;1.00
7028;DHT22;3555;53.248;10.336;2023-04-06T06:45:54;5.40;1.00
7028;DHT22;3555;53.248;10.336;2023-04-06T06:48:21;5.70;1.00
7028;DHT22;3555;53.248;10.336;2023-04-06T06:50:49;5.90;1.00
7028;DHT22;3555;53.248;10.336;2023-04-06T06:53:16;6.30;99.90
7028;DHT22;3555;53.248;10.336;2023-04-06T06:55:43;6.40;99.90
7028;DHT22;3555;53.248;10.336;2023-04-06T06:58:10;6.60;99.90
7028;DHT22;3555;53.248;10.336;2023-04-06T07:00:37;6.40;99.90
7028;DHT22;3555;53.248;10.336;2023-04-06T07:03:05;6.50;99.90
7028;DHT22;3555;53.248;10.336;2023-04-06T07:05:32;6.50;99.90
7028;DHT22;3555;53.248;10.336;2023-04-06T07:08:00;6.60;99.90
7028;DHT22;3555;53.248;10.336;2023-04-06T07:10:27;6.60;99.90
7028;DHT22;3555;53.248;10.336;2023-04-06T07:12:54;6.80;99.90
7028;DHT22;3555;53.248;10.336;2023-04-06T07:15:22;6.80;99.90
7028;DHT22;3555;53.248;10.336;2023-04-06T07:17:48;7.30;99.90
7028;DHT22;3555;53.248;10.336;2023-04-06T07:20:16;8.00;99.90
7028;DHT22;3555;53.248;10.336;2023-04-06T07:22:43;8.10;56.10
7028;DHT22;3555;53.248;10.336;2023-04-06T07:25:12;8.10;1.00
7028;DHT22;3555;53.248;10.336;2023-04-06T07:27:39;8.30;1.00
7028;DHT22;3555;53.248;10.336;2023-04-06T07:30:07;8.20;1.00
7028;DHT22;3555;53.248;10.336;2023-04-06T07:32:34;8.20;1.00
7028;DHT22;3555;53.248;10.336;2023-04-06T07:35:02;8.20;1.00
7028;DHT22;3555;53.248;10.336;2023-04-06T07:37:29;8.60;1.00
7028;DHT22;3555;53.248;10.336;2023-04-06T07:39:56;8.50;1.00
7028;DHT22;3555;53.248;10.336;2023-04-06T07:42:24;8.40;1.00
7028;DHT22;3555;53.248;10.336;2023-04-06T07:44:51;8.30;1.00
7028;DHT22;3555;53.248;10.336;2023-04-06T07:47:18;8.50;1.00
7028;DHT22;3555;53.248;10.336;2023-04-06T07:49:45;8.60;1.00
7028;DHT22;3555;53.248;10.336;2023-04-06T07:52:12;8.70;1.00
7028;DHT22;3555;53.248;10.336;2023-04-06T07:54:40;8.80;1.00
7028;DHT22;3555;53.248;10.336;2023-04-06T07:57:07;8.60;1.00
7028;DHT22;3555;53.248;10.336;2023-04-06T07:59:36;9.00;1.00
7028;DHT22;3555;53.248;10.336;2023-04-06T08:02:03;9.50;1.00
7028;DHT22;3555;53.248;10.336;2023-04-06T08:04:30;9.50;1.00
7028;DHT22;3555;53.248;10.336;2023-04-06T08:06:57;9.30;1.00
7028;DHT22;3555;53.248;10.336;2023-04-06T08:09:25;9.40;1.00
7028;DHT22;3555;53.248;10.336;2023-04-06T08:11:52;9.50;1.00
7028;DHT22;3555;53.248;10.336;2023-04-06T08:14:19;9.40;1.00
7028;DHT22;3555;53.248;10.336;2023-04-06T08:16:48;9.70;1.00
7028;DHT22;3555;53.248;10.336;2023-04-06T08:19:15;9.90;1.00
7028;DHT22;3555;53.248;10.336;2023-04-06T08:21:42;10.10;1.00
7028;DHT22;3555;53.248;10.336;2023-04-06T08:24:09;9.60;1.00
7028;DHT22;3555;53.248;10.336;2023-04-06T08:26:36;9.40;1.00
7028;DHT22;3555;53.248;10.336;2023-04-06T08:29:04;9.70;1.00
7028;DHT22;3555;53.248;10.336;2023-04-06T08:31:33;9.80;1.00
7028;DHT22;3555;53.248;10.336;2023-04-06T08:34:03;10.10;1.00
7028;DHT22;3555;53.248;10.336;2023-04-06T08:36:31;10.10;1.00
7028;DHT22;3555;53.248;10.336;2023-04-06T08:39:00;10.40;1.00
7028;DHT22;3555;53.248;10.336;2023-04-06T08:41:27;10.60;1.00
7028;DHT22;3555;53.248;10.336;2023-04-06T08:43:57;10.80;1.00
7028;DHT22;3555;53.248;10.336;2023-04-06T08:46:26;10.90;1.00
7028;DHT22;3555;53.248;10.336;2023-04-06T08:48:55;11.00;1.00
7028;DHT22;3555;53.248;10.336;2023-04-06T08:51:24;10.90;1.00
7028;DHT22;3555;53.248;10.336;2023-04-06T08:53:52;11.10;1.00
7028;DHT22;3555;53.248;10.336;2023-04-06T08:56:21;10.60;1.00
7028;DHT22;3555;53.248;10.336;2023-04-06T08:58:49;10.70;1.00
7028;DHT22;3555;53.248;10.336;2023-04-06T09:01:20;11.20;1.00
7028;DHT22;3555;53.248;10.336;2023-04-06T09:03:49;11.20;1.00
7028;DHT22;3555;53.248;10.336;2023-04-06T09:06:16;10.70;1.00
7028;DHT22;3555;53.248;10.336;2023-04-06T09:08:44;10.50;1.00
7028;DHT22;3555;53.248;10.336;2023-04-06T09:11:11;10.50;1.00
7028;DHT22;3555;53.248;10.336;2023-04-06T09:13:45;10.60;1.00
7028;DHT22;3555;53.248;10.336;2023-04-06T09:16:13;10.90;1.00
7028;DHT22;3555;53.248;10.336;2023-04-06T09:18:40;10.70;1.00
7028;DHT22;3555;53.248;10.336;2023-04-06T09:21:08;10.60;1.00
7028;DHT22;3555;53.248;10.336;2023-04-06T09:23:37;10.70;1.00
7028;DHT22;3555;53.248;10.336;2023-04-06T09:26:10;10.90;1.00
7028;DHT22;3555;53.248;10.336;2023-04-06T09:28:45;10.70;1.00
7028;DHT22;3555;53.248;10.336;2023-04-06T09:31:13;10.80;1.00
7028;DHT22;3555;53.248;10.336;2023-04-06T09:33:43;10.50;1.00
7028;DHT22;3555;53.248;10.336;2023-04-06T09:36:10;10.60;1.00
7028;DHT22;3555;53.248;10.336;2023-04-06T09:38:52;10.50;1.00
7028;DHT22;3555;53.248;10.336;2023-04-06T09:41:25;10.80;1.00
7028;DHT22;3555;53.248;10.336;2023-04-06T09:44:01;11.00;1.00
7028;DHT22;3555;53.248;10.336;2023-04-06T09:46:31;10.70;1.00
7028;DHT22;3555;53.248;10.336;2023-04-06T09:48:59;11.00;1.00
7028;DHT22;3555;53.248;10.336;2023-04-06T09:51:27;10.90;1.00
7028;DHT22;3555;53.248;10.336;2023-04-06T09:53:57;11.10;1.00
7028;DHT22;3555;53.248;10.336;2023-04-06T09:56:31;11.20;1.00
7028;DHT22;3555;53.248;10.336;2023-04-06T09:59:09;11.30;1.00
7028;DHT22;3555;53.248;10.336;2023-04-06T10:01:39;10.90;1.00
7028;DHT22;3555;53.248;10.336;2023-04-06T10:04:21;11.00;1.00
7028;DHT22;3555;53.248;10.336;2023-04-06T10:06:53;11.10;1.00
7028;DHT22;3555;53.248;10.336;2023-04-06T10:09:25;11.10;1.00
7028;DHT22;3555;53.248;10.336;2023-04-06T10:11:56;11.30;1.00
7028;DHT22;3555;53.248;10.336;2023-04-06T10:14:24;11.30;1.00
7028;DHT22;3555;53.248;10.336;2023-04-06T10:16:52;11.60;1.00
7028;DHT22;3555;53.248;10.336;2023-04-06T10:19:21;11.70;1.00
7028;DHT22;3555;53.248;10.336;2023-04-06T10:21:54;11.60;1.00
7028;DHT22;3555;53.248;10.336;2023-04-06T10:24:22;11.60;1.00
7028;DHT22;3555;53.248;10.336;2023-04-06T10:26:58;11.40;1.00
7028;DHT22;3555;53.248;10.336;2023-04-06T10:29:26;11.30;1.00
7028;DHT22;3555;53.248;10.336;2023-04-06T10:31:53;11.30;1.00
7028;DHT22;3555;53.248;10.336;2023-04-06T10:34:21;11.40;1.00
7028;DHT22;3555;53.248;10.336;2023-04-06T10:36:48;11.60;1.00
7028;DHT22;3555;53.248;10.336;2023-04-06T10:39:24;11.70;1.00
7028;DHT22;3555;53.248;10.336;2023-04-06T10:41:52;11.90;1.00
7028;DHT22;3555;53.248;10.336;2023-04-06T10:44:22;12.00;1.00
7028;DHT22;3555;53.248;10.336;2023-04-06T10:46:53;12.20;1.00
7028;DHT22;3555;53.248;10.336;2023-04-06T10:49:20;11.90;1.00
7028;DHT22;3555;53.248;10.336;2023-04-06T10:51:51;12.00;1.00
7028;DHT22;3555;53.248;10.336;2023-04-06T10:54:21;11.90;1.00
7028;DHT22;3555;53.248;10.336;2023-04-06T10:56:49;11.60;1.00
7028;DHT22;3555;53.248;10.336;2023-04-06T10:59:19;11.80;1.00
7028;DHT22;3555;53.248;10.336;2023-04-06T11:01:48;11.90;1.00
7028;DHT22;3555;53.248;10.336;2023-04-06T11:04:17;12.20;1.00
7028;DHT22;3555;53.248;10.336;2023-04-06T11:06:47;12.40;1.00
7028;DHT22;3555;53.248;10.336;2023-04-06T11:09:24;12.30;1.00
7028;DHT22;3555;53.248;10.336;2023-04-06T11:11:52;12.00;1.00
7028;DHT22;3555;53.248;10.336;2023-04-06T11:14:19;12.00;1.00
7028;DHT22;3555;53.248;10.336;2023-04-06T11:16:48;11.80;1.00
7028;DHT22;3555;53.248;10.336;2023-04-06T11:19:15;12.00;1.00
7028;DHT22;3555;53.248;10.336;2023-04-06T11:21:44;12.00;1.00
7028;DHT22;3555;53.248;10.336;2023-04-06T11:24:14;12.00;1.00
7028;DHT22;3555;53.248;10.336;2023-04-06T11:26:43;11.90;1.00
7028;DHT22;3555;53.248;10.336;2023-04-06T11:29:11;12.00;1.00
7028;DHT22;3555;53.248;10.336;2023-04-06T11:31:43;12.00;1.00
7028;DHT22;3555;53.248;10.336;2023-04-06T11:34:16;12.00;1.00
7028;DHT22;3555;53.248;10.336;2023-04-06T11:36:44;12.30;1.00
7028;DHT22;3555;53.248;10.336;2023-04-06T11:39:12;12.70;1.00
7028;DHT22;3555;53.248;10.336;2023-04-06T11:41:39;12.70;1.00
7028;DHT22;3555;53.248;10.336;2023-04-06T11:44:06;12.80;1.00
7028;DHT22;3555;53.248;10.336;2023-04-06T11:46:33;12.40;1.00
7028;DHT22;3555;53.248;10.336;2023-04-06T11:49:01;12.70;1.00
7028;DHT22;3555;53.248;10.336;2023-04-06T11:51:30;13.10;1.00
7028;DHT22;3555;53.248;10.336;2023-04-06T11:53:57;12.80;1.00
7028;DHT22;3555;53.248;10.336;2023-04-06T11:56:25;13.10;1.00
7028;DHT22;3555;53.248;10.336;2023-04-06T11:58:53;13.30;1.00
7028;DHT22;3555;53.248;10.336;2023-04-06T12:01:21;13.20;1.00
7028;DHT22;3555;53.248;10.336;2023-04-06T12:03:48;12.90;1.00
7028;DHT22;3555;53.248;10.336;2023-04-06T12:06:15;12.90;1.00
7028;DHT22;3555;53.248;10.336;2023-04-06T12:08:43;12.70;1.00
7028;DHT22;3555;53.248;10.336;2023-04-06T12:11:11;12.60;1.00
7028;DHT22;3555;53.248;10.336;2023-04-06T12:13:38;12.70;1.00
7028;DHT22;3555;53.248;10.336;2023-04-06T12:16:05;13.10;1.00
7028;DHT22;3555;53.248;10.336;2023-04-06T12:18:32;12.70;1.00
7028;DHT22;3555;53.248;10.336;2023-04-06T12:20:59;13.10;1.00
7028;DHT22;3555;53.248;10.336;2023-04-06T12:23:26;13.10;1.00
7028;DHT22;3555;53.248;10.336;2023-04-06T12:25:55;13.00;1.00
7028;DHT22;3555;53.248;10.336;2023-04-06T12:28:22;12.80;1.00
7028;DHT22;3555;53.248;10.336;2023-04-06T12:30:52;13.00;1.00
7028;DHT22;3555;53.248;10.336;2023-04-06T12:33:20;13.20;1.00
7028;DHT22;3555;53.248;10.336;2023-04-06T12:35:47;13.10;1.00
7028;DHT22;3555;53.248;10.336;2023-04-06T12:38:15;13.10;1.00
7028;DHT22;3555;53.248;10.336;2023-04-06T12:40:42;12.90;1.00
7028;DHT22;3555;53.248;10.336;2023-04-06T12:43:11;12.80;1.00
7028;DHT22;3555;53.248;10.336;2023-04-06T12:45:39;12.80;1.00
7028;DHT22;3555;53.248;10.336;2023-04-06T12:48:06;13.00;1.00
7028;DHT22;3555;53.248;10.336;2023-04-06T12:50:33;13.00;1.00
7028;DHT22;3555;53.248;10.336;2023-04-06T12:53:00;12.90;1.00
7028;DHT22;3555;53.248;10.336;2023-04-06T12:55:30;12.80;1.00
7028;DHT22;3555;53.248;10.336;2023-04-06T12:57:59;13.00;1.00
7028;DHT22;3555;53.248;10.336;2023-04-06T13:00:28;13.30;1.00
7028;DHT22;3555;53.248;10.336;2023-04-06T13:02:56;13.10;1.00
7028;DHT22;3555;53.248;10.336;2023-04-06T13:05:23;13.00;1.00
7028;DHT22;3555;53.248;10.336;2023-04-06T13:07:50;12.90;1.00
7028;DHT22;3555;53.248;10.336;2023-04-06T13:10:17;12.90;1.00
7028;DHT22;3555;53.248;10.336;2023-04-06T13:12:44;13.00;1.00
7028;DHT22;3555;53.248;10.336;2023-04-06T13:15:11;13.10;1.00
7028;DHT22;3555;53.248;10.336;2023-04-06T13:17:39;13.20;1.00
7028;DHT22;3555;53.248;10.336;2023-04-06T13:20:07;13.30;1.00
7028;DHT22;3555;53.248;10.336;2023-04-06T13:22:34;13.30;1.00
7028;DHT22;3555;53.248;10.336;2023-04-06T13:25:01;12.80;1.00
7028;DHT22;3555;53.248;10.336;2023-04-06T13:27:28;13.10;1.00
7028;DHT22;3555;53.248;10.336;2023-04-06T13:29:59;13.10;1.00
7028;DHT22;3555;53.248;10.336;2023-04-06T13:32:26;13.00;1.00
7028;DHT22;3555;53.248;10.336;2023-04-06T13:34:56;13.30;1.00
7028;DHT22;3555;53.248;10.336;2023-04-06T13:37:23;13.00;1.00
7028;DHT22;3555;53.248;10.336;2023-04-06T13:39:50;12.90;1.00
7028;DHT22;3555;53.248;10.336;2023-04-06T13:42:17;13.00;1.00
7028;DHT22;3555;53.248;10.336;2023-04-06T13:44:44;12.90;1.00
7028;DHT22;3555;53.248;10.336;2023-04-06T13:47:13;13.00;1.00
7028;DHT22;3555;53.248;10.336;2023-04-06T13:49:40;13.20;1.00
7028;DHT22;3555;53.248;10.336;2023-04-06T13:52:09;13.20;1.00
7028;DHT22;3555;53.248;10.336;2023-04-06T13:54:36;13.20;1.00
7028;DHT22;3555;53.248;10.336;2023-04-06T13:57:03;13.30;1.00
7028;DHT22;3555;53.248;10.336;2023-04-06T13:59:34;13.30;1.00
7028;DHT22;3555;53.248;10.336;2023-04-06T14:02:01;13.30;1.00
7028;DHT22;3555;53.248;10.336;2023-04-06T14:04:29;13.10;1.00
7028;DHT22;3555;53.248;10.336;2023-04-06T14:06:56;13.00;1.00
7028;DHT22;3555;53.248;10.336;2023-04-06T14:09:24;12.90;1.00
7028;DHT22;3555;53.248;10.336;2023-04-06T14:11:52;12.80;1.00
7028;DHT22;3555;53.248;10.336;2023-04-06T14:14:19;12.90;1.00
7028;DHT22;3555;53.248;10.336;2023-04-06T14:16:46;12.90;1.00
7028;DHT22;3555;53.248;10.336;2023-04-06T14:19:15;13.00;1.00
7028;DHT22;3555;53.248;10.336;2023-04-06T14:21:43;13.00;1.00
7028;DHT22;3555;53.248;10.336;2023-04-06T14:24:10;13.30;1.00
7028;DHT22;3555;53.248;10.336;2023-04-06T14:26:39;13.30;1.00
7028;DHT22;3555;53.248;10.336;2023-04-06T14:29:08;13.40;1.00
7028;DHT22;3555;53.248;10.336;2023-04-06T14:31:36;13.30;1.00
7028;DHT22;3555;53.248;10.336;2023-04-06T14:34:03;13.40;1.00
7028;DHT22;3555;53.248;10.336;2023-04-06T14:36:31;13.30;1.00
7028;DHT22;3555;53.248;10.336;2023-04-06T14:39:02;13.20;1.00
7028;DHT22;3555;53.248;10.336;2023-04-06T14:41:31;13.10;1.00
7028;DHT22;3555;53.248;10.336;2023-04-06T14:44:00;13.20;1.00
7028;DHT22;3555;53.248;10.336;2023-04-06T14:46:27;13.30;1.00
7028;DHT22;3555;53.248;10.336;2023-04-06T14:48:54;13.20;1.00
7028;DHT22;3555;53.248;10.336;2023-04-06T14:51:24;13.20;1.00
7028;DHT22;3555;53.248;10.336;2023-04-06T14:53:52;13.20;1.00
7028;DHT22;3555;53.248;10.336;2023-04-06T14:56:20;13.20;1.00
7028;DHT22;3555;53.248;10.336;2023-04-06T14:58:47;13.20;1.00
7028;DHT22;3555;53.248;10.336;2023-04-06T15:01:17;13.10;1.00
7028;DHT22;3555;53.248;10.336;2023-04-06T15:03:44;13.00;1.00
7028;DHT22;3555;53.248;10.336;2023-04-06T15:06:15;12.90;1.00
7028;DHT22;3555;53.248;10.336;2023-04-06T15:08:42;13.10;1.00
7028;DHT22;3555;53.248;10.336;2023-04-06T15:11:10;13.00;1.00
7028;DHT22;3555;53.248;10.336;2023-04-06T15:13:37;13.00;1.00
7028;DHT22;3555;53.248;10.336;2023-04-06T15:16:04;12.90;1.00
7028;DHT22;3555;53.248;10.336;2023-04-06T15:18:33;12.90;1.00
7028;DHT22;3555;53.248;10.336;2023-04-06T15:21:00;13.00;1.00
7028;DHT22;3555;53.248;10.336;2023-04-06T15:23:27;13.10;1.00
7028;DHT22;3555;53.248;10.336;2023-04-06T15:25:55;13.10;1.00
7028;DHT22;3555;53.248;10.336;2023-04-06T15:28:22;13.00;1.00
7028;DHT22;3555;53.248;10.336;2023-04-06T15:30:49;12.80;1.00
7028;DHT22;3555;53.248;10.336;2023-04-06T15:33:17;12.80;1.00
7028;DHT22;3555;53.248;10.336;2023-04-06T15:35:45;12.80;1.00
7028;DHT22;3555;53.248;10.336;2023-04-06T15:38:12;12.70;1.00
7028;DHT22;3555;53.248;10.336;2023-04-06T15:40:42;12.60;1.00
7028;DHT22;3555;53.248;10.336;2023-04-06T15:43:10;12.70;1.00
7028;DHT22;3555;53.248;10.336;2023-04-06T15:45:37;12.80;1.00
7028;DHT22;3555;53.248;10.336;2023-04-06T15:48:04;12.90;1.00
7028;DHT22;3555;53.248;10.336;2023-04-06T15:50:31;12.90;1.00
7028;DHT22;3555;53.248;10.336;2023-04-06T15:52:59;12.90;1.00
7028;DHT22;3555;53.248;10.336;2023-04-06T15:55:26;12.90;1.00
7028;DHT22;3555;53.248;10.336;2023-04-06T15:57:53;13.00;1.00
7028;DHT22;3555;53.248;10.336;2023-04-06T16:00:21;13.10;1.00
7028;DHT22;3555;53.248;10.336;2023-04-06T16:02:48;13.10;1.00
7028;DHT22;3555;53.248;10.336;2023-04-06T16:05:15;13.00;1.00
7028;DHT22;3555;53.248;10.336;2023-04-06T16:07:42;12.80;1.00